createdAt,value
2023-01-22T00:06:06.854Z,22.07
2023-01-22T00:16:12.332Z,17.80
2023-01-22T00:26:16.852Z,16.67
2023-01-22T00:36:22.328Z,16.17
2023-01-22T00:46:24.528Z,16.07
2023-01-22T00:56:28.362Z,14.70
2023-01-22T01:06:31.552Z,14.83
2023-01-22T01:16:33.914Z,14.57
2023-01-22T01:26:37.358Z,15.60
2023-01-22T01:36:48.620Z,13.40
2023-01-22T01:46:54.693Z,14.13
2023-01-22T01:57:18.201Z,12.27
2023-01-22T02:07:20.895Z,13.60
2023-01-22T02:17:23.052Z,15.10
2023-01-22T02:27:26.887Z,11.87
2023-01-22T02:37:29.558Z,12.80
2023-01-22T02:47:32.022Z,12.67
2023-01-22T02:57:34.300Z,13.93
2023-01-22T03:07:44.749Z,13.23
2023-01-22T03:18:05.897Z,12.83
2023-01-22T03:28:18.670Z,10.90
2023-01-22T03:38:26.685Z,12.27
2023-01-22T03:48:30.038Z,12.27
2023-01-22T03:58:33.218Z,11.07
2023-01-22T04:08:36.935Z,11.77
2023-01-22T04:18:40.188Z,13.77
2023-01-22T04:29:02.701Z,14.10
2023-01-22T04:39:05.657Z,12.57
2023-01-22T04:49:08.865Z,13.13
2023-01-22T04:59:11.735Z,14.07
2023-01-22T05:09:14.067Z,14.50
2023-01-22T05:19:30.859Z,13.37
2023-01-22T05:29:33.074Z,17.47
2023-01-22T05:39:47.621Z,15.07
2023-01-22T05:49:52.012Z,13.50
2023-01-22T05:59:54.317Z,17.30
2023-01-22T06:09:56.654Z,13.27
2023-01-22T06:19:59.290Z,14.17
2023-01-22T06:30:02.119Z,11.50
2023-01-22T06:40:05.552Z,13.57
2023-01-22T06:50:17.425Z,13.67
2023-01-22T07:00:20.770Z,13.70
2023-01-22T07:10:23.107Z,12.50
2023-01-22T07:20:25.321Z,10.87
2023-01-22T07:30:27.917Z,12.97
2023-01-22T07:40:30.069Z,12.67
2023-01-22T07:50:33.505Z,16.27
2023-01-22T08:00:36.868Z,13.97
2023-01-22T08:10:39.483Z,14.83
2023-01-22T08:20:44.061Z,15.10
2023-01-22T08:30:47.106Z,15.07
2023-01-22T08:40:52.548Z,15.77
2023-01-22T08:50:54.914Z,14.83
2023-01-22T09:00:58.484Z,14.27
2023-01-22T09:11:00.941Z,15.67
2023-01-22T09:21:04.242Z,12.83
2023-01-22T09:31:06.428Z,13.80
2023-01-22T09:41:20.644Z,13.27
2023-01-22T09:51:23.005Z,14.60
2023-01-22T10:01:26.641Z,12.57
2023-01-22T10:11:29.085Z,14.40
2023-01-22T10:21:52.874Z,12.63
2023-01-22T10:31:58.007Z,12.33
2023-01-22T10:42:02.009Z,11.10
2023-01-22T10:52:22.350Z,12.27
2023-01-22T11:02:26.411Z,12.30
2023-01-22T11:12:36.094Z,13.73
2023-01-22T11:22:40.074Z,12.23
2023-01-22T11:32:51.192Z,10.87
2023-01-22T11:43:22.883Z,10.90
2023-01-22T11:53:24.951Z,11.40
2023-01-22T12:03:52.870Z,11.17
2023-01-22T12:14:23.014Z,10.77
2023-01-22T12:24:37.454Z,12.87
2023-01-22T12:34:42.407Z,12.93
2023-01-22T12:45:03.039Z,14.33
2023-01-22T12:55:31.918Z,14.83
2023-01-22T13:05:35.237Z,14.23
2023-01-22T13:15:38.675Z,16.03
2023-01-22T13:25:43.009Z,17.60
2023-01-22T13:35:46.704Z,14.93
2023-01-22T13:45:50.675Z,15.20
2023-01-22T13:55:53.236Z,14.37
2023-01-22T14:06:05.820Z,21.80
2023-01-22T14:16:08.606Z,19.93
2023-01-22T14:26:10.987Z,21.00
2023-01-22T14:36:13.153Z,21.40
2023-01-22T14:46:15.476Z,17.83
2023-01-22T14:56:17.817Z,18.00
2023-01-22T15:06:20.355Z,16.87
2023-01-22T15:16:22.518Z,16.63
2023-01-22T15:26:25.780Z,15.50
2023-01-22T15:36:32.810Z,17.57
2023-01-22T15:46:36.814Z,19.70
2023-01-22T15:56:40.241Z,19.80
2023-01-22T16:06:42.490Z,21.30
2023-01-22T16:16:44.817Z,21.43
2023-01-22T16:26:46.984Z,18.90
2023-01-22T16:36:49.265Z,17.53
2023-01-22T16:46:54.188Z,23.73
2023-01-22T16:56:57.922Z,22.00
2023-01-22T17:07:00.463Z,25.57
2023-01-22T17:17:02.983Z,23.40
2023-01-22T17:27:05.335Z,23.60
2023-01-22T17:37:11.091Z,28.23
2023-01-22T17:47:13.653Z,19.67
2023-01-22T17:57:16.004Z,21.97
2023-01-22T18:07:18.306Z,20.83
2023-01-22T18:17:20.445Z,20.30
2023-01-22T18:27:22.733Z,16.00
2023-01-22T18:37:24.836Z,17.80
2023-01-22T18:47:29.642Z,16.73
2023-01-22T18:57:35.292Z,20.17
2023-01-22T19:07:39.103Z,18.43
2023-01-22T19:17:41.215Z,20.37
2023-01-22T19:27:43.591Z,19.87
2023-01-22T19:37:45.768Z,17.30
2023-01-22T19:47:48.648Z,19.87
2023-01-22T19:57:50.919Z,18.93
2023-01-22T20:07:56.417Z,18.03
2023-01-22T20:17:58.600Z,18.07
2023-01-22T20:28:01.263Z,15.47
2023-01-22T20:38:03.596Z,16.00
2023-01-22T20:48:06.003Z,16.20
2023-01-22T20:58:08.195Z,18.07
2023-01-22T21:08:10.590Z,20.07
2023-01-22T21:18:12.831Z,18.73
2023-01-22T21:28:15.261Z,19.10
2023-01-22T21:38:20.711Z,22.17
2023-01-22T21:48:22.946Z,21.03
2023-01-22T21:58:26.090Z,19.90
2023-01-22T22:08:28.754Z,20.90
2023-01-22T22:18:31.469Z,18.63
2023-01-22T22:28:34.933Z,21.37
2023-01-22T22:38:37.761Z,23.23
2023-01-22T22:48:39.966Z,20.30
2023-01-22T22:58:42.401Z,19.00
2023-01-22T23:08:47.338Z,17.53
2023-01-22T23:18:51.685Z,17.53
2023-01-22T23:28:57.310Z,17.57
2023-01-22T23:38:59.495Z,17.10
2023-01-22T23:49:03.157Z,13.07
2023-01-22T23:59:05.715Z,17.23
